McHenry, MD

8:59 AM EST on February 26, 2017 (GMT -0500)
Oakland

Weather History for K2G4 - April, 2013

Change the Weather History Date:

Friday, April 5, 2013

  Actual Average (KMGW) Record (KMGW)
Temperature  
Mean Temperature 40 °F -  
Max Temperature 48 °F 58 °F 85 °F (1947)
Min Temperature 30 °F 38 °F 20 °F (1982)
Degree Days  
Heating Degree Days 25    
Moisture  
Dew Point 23 °F    
Average Humidity 56    
Maximum Humidity 93    
Minimum Humidity 34    
Precipitation  
Precipitation 0.00 in - - ()
Sea Level Pressure  
Sea Level Pressure 29.93 in    
Wind  
Wind Speed 9 mph (WNW)    
Max Wind Speed 16 mph    
Max Gust Speed 24 mph    
Visibility 10 miles    
Events      
Averages and records for this station are not official NWS values.
T = Trace of Precipitation, MM = Missing Value Source: NWS Daily Summary

Daily Weather History Graph

Daily Weather History Graph

Search for Another Location

Airport or City:

Trip Planner

Search our weather history database for the weather conditions in past years. The results will help you decide how hot, cold, wet, or windy it might be!

Date:

Astronomy

Apr. 05, 2013 Rise Set
Actual Time 6:54 AM EDT 7:45 PM EDT
Civil Twilight 6:27 AM EDT 8:12 PM EDT
Nautical Twilight 5:55 AM EDT 8:45 PM EDT
Astronomical Twilight 5:21 AM EDT 9:19 PM EDT
Moon 4:00 AM EDT (4/5) 3:08 PM EDT (4/5)
Length of Visible Light 13h 45m
Length of Day
12h 50m
Waning Crescent, 24% of the Moon is Illuminated
Apr 5
Waning Crescent
Apr 10
New
Apr 18
First Quarter
Apr 25
Full
May 2
Last Quarter

Hourly Weather History & Observations

Time (EDT) Temp. Windchill Dew Point Humidity Pressure Visibility Wind Dir Wind Speed Gust Speed Precip Events Conditions
12:05 AM 35.6 °F 30.7 °F 17.6 °F 48% 29.95 in 10.0 mi SW 5.8 mph - N/A   Overcast
12:25 AM 35.6 °F 30.7 °F 19.4 °F 52% 29.94 in 10.0 mi SSW 5.8 mph - N/A   Overcast
1:05 AM 35.6 °F 29.9 °F 23.0 °F 60% 29.93 in 10.0 mi WSW 6.9 mph - N/A   Overcast
1:25 AM 35.6 °F 29.9 °F 24.8 °F 65% 29.92 in 10.0 mi WSW 6.9 mph - N/A   Mostly Cloudy
1:45 AM 35.6 °F 29.2 °F 26.6 °F 70% 29.92 in 10.0 mi WSW 8.1 mph - N/A   Mostly Cloudy
2:05 AM 35.6 °F 28.6 °F 26.6 °F 70% 29.91 in 10.0 mi WSW 9.2 mph - N/A   Overcast
2:25 AM 35.6 °F 29.2 °F 26.6 °F 70% 29.91 in 10.0 mi WSW 8.1 mph - N/A   Overcast
2:45 AM 35.6 °F 28.6 °F 26.6 °F 70% 29.90 in 10.0 mi West 9.2 mph - N/A   Overcast
3:05 AM 35.6 °F 29.2 °F 26.6 °F 70% 29.89 in 10.0 mi West 8.1 mph - N/A   Overcast
3:25 AM 35.6 °F 29.9 °F 28.4 °F 75% 29.89 in 10.0 mi West 6.9 mph - N/A   Scattered Clouds
3:45 AM 35.6 °F 29.2 °F 28.4 °F 75% 29.88 in 10.0 mi West 8.1 mph - N/A   Clear
4:05 AM 35.6 °F 29.2 °F 28.4 °F 75% 29.89 in 10.0 mi West 8.1 mph - N/A   Clear
4:25 AM 33.8 °F 25.8 °F 30.2 °F 87% 29.89 in 10.0 mi West 10.4 mph - N/A   Clear
4:45 AM 33.8 °F 25.8 °F 32.0 °F 93% 29.89 in 10.0 mi West 10.4 mph 18.4 mph N/A   Clear
5:05 AM 33.8 °F 25.8 °F 32.0 °F 93% 29.90 in 10.0 mi West 10.4 mph 16.1 mph N/A   Clear
5:25 AM 33.8 °F 26.4 °F 32.0 °F 93% 29.90 in 10.0 mi West 9.2 mph 16.1 mph N/A   Clear
6:05 AM 33.8 °F 26.4 °F 30.2 °F 87% 29.90 in 10.0 mi West 9.2 mph - N/A   Clear
6:45 AM 33.8 °F 26.4 °F 30.2 °F 87% 29.91 in 10.0 mi West 9.2 mph - N/A   Clear
7:05 AM 33.8 °F 25.8 °F 28.4 °F 81% 29.91 in 10.0 mi West 10.4 mph - N/A   Clear
7:25 AM 33.8 °F 25.3 °F 28.4 °F 81% 29.92 in 10.0 mi West 11.5 mph 19.6 mph N/A   Clear
7:45 AM 33.8 °F 25.8 °F 28.4 °F 81% 29.91 in 10.0 mi West 10.4 mph 16.1 mph N/A   Clear
8:05 AM 33.8 °F 27.0 °F 26.6 °F 75% 29.92 in 10.0 mi West 8.1 mph - N/A   Clear
8:45 AM 35.6 °F 29.2 °F 24.8 °F 65% 29.90 in 10.0 mi West 8.1 mph 16.1 mph N/A   Clear
9:05 AM 37.4 °F 30.8 °F 23.0 °F 56% 29.90 in 10.0 mi West 9.2 mph 17.3 mph N/A   Clear
9:25 AM 37.4 °F 32.8 °F 23.0 °F 56% 29.91 in 10.0 mi WNW 5.8 mph 17.3 mph N/A   Clear
9:45 AM 37.4 °F 30.8 °F 23.0 °F 56% 29.91 in 10.0 mi WNW 9.2 mph 17.3 mph N/A   Clear
10:05 AM 39.2 °F 31.6 °F 23.0 °F 52% 29.91 in 10.0 mi WNW 12.7 mph 18.4 mph N/A   Clear
10:25 AM 39.2 °F 31.6 °F 23.0 °F 52% 29.91 in 10.0 mi WNW 12.7 mph 18.4 mph N/A   Clear
10:45 AM 41.0 °F 34.7 °F 23.0 °F 49% 29.92 in 10.0 mi NW 10.4 mph - N/A   Clear
11:05 AM 42.8 °F 36.2 °F 21.2 °F 42% 29.92 in 10.0 mi NNW 12.7 mph 17.3 mph N/A   Clear
11:25 AM 42.8 °F 37.5 °F 19.4 °F 39% 29.93 in 10.0 mi WNW 9.2 mph 18.4 mph N/A   Clear
11:45 AM 44.6 °F 39.2 °F 19.4 °F 37% 29.93 in 10.0 mi WNW 10.4 mph 18.4 mph N/A   Clear
12:05 PM 44.6 °F 39.2 °F 19.4 °F 37% 29.93 in 10.0 mi WNW 10.4 mph 17.3 mph N/A   Mostly Cloudy
12:45 PM 44.6 °F 39.7 °F 21.2 °F 39% 29.92 in 10.0 mi WNW 9.2 mph 19.6 mph N/A   Mostly Cloudy
1:05 PM 46.4 °F 41.5 °F 21.2 °F 37% 29.91 in 10.0 mi NW 10.4 mph 18.4 mph N/A   Scattered Clouds
1:25 PM 46.4 °F 42.4 °F 21.2 °F 37% 29.91 in 10.0 mi WNW 8.1 mph 18.4 mph N/A   Clear
1:45 PM 46.4 °F 39.8 °F 23.0 °F 40% 29.90 in 10.0 mi WNW 16.1 mph 21.9 mph N/A   Clear
2:05 PM 46.4 °F 41.9 °F 23.0 °F 40% 29.90 in 10.0 mi WNW 9.2 mph 20.7 mph N/A   Clear
2:25 PM 48.2 °F - 21.2 °F 34% 29.89 in 10.0 mi WNW 13.8 mph 20.7 mph N/A   Clear
2:45 PM 48.2 °F - 23.0 °F 37% 29.90 in 10.0 mi WNW 10.4 mph 19.6 mph N/A   Clear
3:05 PM 46.4 °F 39.8 °F 21.2 °F 37% 29.89 in 10.0 mi NW 16.1 mph 21.9 mph N/A   Scattered Clouds
3:45 PM 46.4 °F 41.5 °F 23.0 °F 40% 29.90 in 10.0 mi NNW 10.4 mph 18.4 mph N/A   Scattered Clouds
4:05 PM 48.2 °F - 23.0 °F 37% 29.89 in 10.0 mi NW 12.7 mph 23.0 mph N/A   Scattered Clouds
4:25 PM 46.4 °F 40.1 °F 23.0 °F 40% 29.89 in 10.0 mi NW 15.0 mph 24.2 mph N/A   Scattered Clouds
4:45 PM 46.4 °F 41.1 °F 23.0 °F 40% 29.90 in 10.0 mi NW 11.5 mph 21.9 mph N/A   Scattered Clouds
5:05 PM 46.4 °F 41.9 °F 23.0 °F 40% 29.91 in 10.0 mi West 9.2 mph 19.6 mph N/A   Scattered Clouds
5:25 PM 44.6 °F 37.8 °F 23.0 °F 43% 29.91 in 10.0 mi NW 15.0 mph 23.0 mph N/A   Scattered Clouds
5:50 PM 44.6 °F 39.2 °F 23.0 °F 43% 29.93 in 10.0 mi NNW 10.4 mph 18.4 mph N/A   Scattered Clouds
6:10 PM 44.6 °F 39.7 °F 23.0 °F 43% 29.93 in 10.0 mi NNW 9.2 mph - N/A   Scattered Clouds
6:30 PM 44.6 °F 39.7 °F 23.0 °F 43% 29.94 in 10.0 mi WNW 9.2 mph 21.9 mph N/A   Clear
6:50 PM 42.8 °F 37.0 °F 23.0 °F 46% 29.95 in 10.0 mi NW 10.4 mph 20.7 mph N/A   Clear
7:10 PM 42.8 °F 38.0 °F 21.2 °F 42% 29.95 in 10.0 mi NW 8.1 mph 17.3 mph N/A   Clear
7:30 PM 41.0 °F 35.2 °F 21.2 °F 45% 29.96 in 10.0 mi NW 9.2 mph - N/A   Clear
7:50 PM 41.0 °F 36.4 °F 21.2 °F 45% 29.97 in 10.0 mi NW 6.9 mph - N/A   Clear
8:10 PM 39.2 °F 35.0 °F 21.2 °F 49% 29.98 in 10.0 mi NNW 5.8 mph - N/A   Clear
8:30 PM 37.4 °F 32.8 °F 19.4 °F 48% 29.99 in 10.0 mi NNW 5.8 mph - N/A   Clear
8:50 PM 37.4 °F 32.1 °F 21.2 °F 52% 30.00 in 10.0 mi NNW 6.9 mph - N/A   Clear
9:10 PM 35.6 °F 28.6 °F 19.4 °F 52% 30.01 in 10.0 mi NW 9.2 mph - N/A   Clear
9:50 PM 35.6 °F 30.7 °F 19.4 °F 52% 30.04 in 10.0 mi NW 5.8 mph - N/A   Clear
10:10 PM 33.8 °F 27.7 °F 19.4 °F 56% 30.05 in 10.0 mi NNW 6.9 mph - N/A   Clear
10:30 PM 33.8 °F 28.6 °F 19.4 °F 56% 30.05 in 10.0 mi North 5.8 mph - N/A   Clear
10:50 PM 32.0 °F 24.2 °F 19.4 °F 60% 30.05 in 10.0 mi NNW 9.2 mph - N/A   Clear
11:10 PM 32.0 °F 24.8 °F 19.4 °F 60% 30.05 in 10.0 mi North 8.1 mph - N/A   Clear
11:30 PM 32.0 °F 24.8 °F 17.6 °F 55% 30.06 in 10.0 mi North 8.1 mph - N/A   Clear
11:50 PM 30.2 °F 24.3 °F 17.6 °F 60% 30.06 in 10.0 mi North 5.8 mph - N/A   Clear